createdAt,value
2019-01-08T00:02:37.159Z,7.60
2019-01-08T00:05:24.890Z,7.58
2019-01-08T00:10:40.808Z,7.50
2019-01-08T00:13:28.534Z,7.53
2019-01-08T00:16:16.361Z,7.51
2019-01-08T00:19:04.222Z,7.47
2019-01-08T00:21:32.697Z,7.54
2019-01-08T00:24:01.181Z,7.54
2019-01-08T00:26:48.786Z,7.63
2019-01-08T00:29:29.076Z,7.56
2019-01-08T00:31:47.477Z,7.59
2019-01-08T00:34:15.976Z,7.43
2019-01-08T00:37:03.693Z,7.40
2019-01-08T00:39:32.176Z,7.36
2019-01-08T00:42:19.906Z,7.49
2019-01-08T00:44:48.396Z,7.36
2019-01-08T00:47:16.870Z,7.46
2019-01-08T00:52:19.298Z,7.51
2019-01-08T00:55:07.126Z,7.55
2019-01-08T01:05:31.043Z,7.59
2019-01-08T01:08:18.767Z,7.45
2019-01-08T01:10:47.255Z,7.65
2019-01-08T01:13:34.975Z,7.44
2019-01-08T01:16:03.467Z,7.44
2019-01-08T01:18:31.942Z,7.29
2019-01-08T01:21:19.571Z,7.39
2019-01-08T01:23:48.051Z,7.39
2019-01-08T01:26:35.657Z,7.44
2019-01-08T01:29:23.476Z,7.35
2019-01-08T01:34:45.101Z,7.37
2019-01-08T01:37:13.595Z,7.36
2019-01-08T01:39:42.116Z,7.41
2019-01-08T01:42:10.602Z,7.30
2019-01-08T01:44:39.073Z,7.33
2019-01-08T01:47:07.559Z,7.30
2019-01-08T01:49:36.326Z,7.29
2019-01-08T01:52:23.932Z,7.14
2019-01-08T01:55:11.608Z,7.14
2019-01-08T01:57:40.097Z,7.21
2019-01-08T02:00:48.493Z,7.27
2019-01-08T02:03:16.964Z,7.25
2019-01-08T02:05:45.451Z,7.29
2019-01-08T02:08:33.173Z,7.27
2019-01-08T02:11:01.667Z,7.20
2019-01-08T02:13:30.143Z,7.17
2019-01-08T02:15:58.634Z,7.11
2019-01-08T02:18:27.105Z,6.93
2019-01-08T02:20:55.584Z,7.01
2019-01-08T02:26:17.809Z,6.97
2019-01-08T02:28:46.290Z,6.99
2019-01-08T02:31:14.775Z,6.89
2019-01-08T02:33:43.247Z,7.00
2019-01-08T02:36:30.977Z,6.94
2019-01-08T02:38:59.451Z,6.98
2019-01-08T02:41:28.071Z,6.90
2019-01-08T02:43:58.155Z,6.93
2019-01-08T02:46:45.979Z,6.94
2019-01-08T02:49:16.035Z,6.78
2019-01-08T02:51:44.518Z,6.68
2019-01-08T02:54:13.019Z,6.75
2019-01-08T02:56:41.494Z,6.80
2019-01-08T02:59:29.083Z,6.82
2019-01-08T03:01:57.568Z,6.83
2019-01-08T03:04:26.038Z,6.89
2019-01-08T03:06:54.511Z,6.81
2019-01-08T03:09:42.353Z,6.84
2019-01-08T03:12:10.853Z,6.62
2019-01-08T03:14:39.322Z,6.63
2019-01-08T03:17:07.796Z,6.50
2019-01-08T03:19:55.525Z,6.45
2019-01-08T03:22:24.005Z,6.63
2019-01-08T03:24:52.479Z,6.63
2019-01-08T03:27:40.205Z,6.50
2019-01-08T03:30:48.594Z,6.54
2019-01-08T03:33:36.323Z,6.43
2019-01-08T03:36:04.797Z,6.42
2019-01-08T03:38:33.280Z,6.29
2019-01-08T03:41:01.757Z,6.29
2019-01-08T03:43:49.349Z,6.34
2019-01-08T03:46:36.946Z,6.42
2019-01-08T03:49:05.429Z,6.44
2019-01-08T03:51:33.902Z,6.45
2019-01-08T03:54:14.916Z,6.31
2019-01-08T03:56:43.389Z,6.34
2019-01-08T03:59:11.868Z,6.29
2019-01-08T04:01:59.691Z,6.08
2019-01-08T04:07:21.751Z,6.06
2019-01-08T04:10:09.479Z,5.99
2019-01-08T04:12:37.949Z,5.99
2019-01-08T04:18:07.133Z,5.94
2019-01-08T04:20:35.602Z,5.95
2019-01-08T04:23:23.206Z,5.94
2019-01-08T04:25:51.677Z,5.85
2019-01-08T04:28:39.276Z,5.89
2019-01-08T04:31:07.749Z,5.93
2019-01-08T04:33:36.234Z,5.80
2019-01-08T04:36:23.817Z,5.79
2019-01-08T04:38:52.301Z,5.85
2019-01-08T04:41:39.892Z,5.80
2019-01-08T04:44:08.373Z,5.87
2019-01-08T04:46:56.124Z,5.87
2019-01-08T04:49:24.579Z,5.86
2019-01-08T04:51:53.052Z,5.78
2019-01-08T04:54:41.169Z,5.83
2019-01-08T04:57:09.641Z,5.79
2019-01-08T04:59:59.010Z,5.80
2019-01-08T05:02:27.443Z,5.79
2019-01-08T05:04:55.930Z,5.79
2019-01-08T05:10:31.180Z,5.79
2019-01-08T05:12:59.651Z,5.74
2019-01-08T05:15:47.251Z,5.73
2019-01-08T05:18:15.719Z,5.83
2019-01-08T05:21:03.459Z,5.77
2019-01-08T05:23:51.186Z,5.79
2019-01-08T05:26:19.667Z,5.78
2019-01-08T05:28:48.179Z,5.75
2019-01-08T05:34:10.335Z,5.80
2019-01-08T05:36:38.926Z,5.83
2019-01-08T05:39:26.711Z,5.85
2019-01-08T05:41:55.439Z,5.80
2019-01-08T05:44:23.971Z,5.80
2019-01-08T05:46:52.543Z,5.80
2019-01-08T05:50:00.935Z,5.66
2019-01-08T05:52:42.032Z,5.75
2019-01-08T05:55:10.530Z,5.82
2019-01-08T06:00:45.854Z,5.80
2019-01-08T06:03:14.314Z,5.78
2019-01-08T06:05:42.951Z,5.80
2019-01-08T06:08:30.782Z,5.80
2019-01-08T06:10:59.301Z,5.82
2019-01-08T06:13:27.807Z,5.85
2019-01-08T06:16:15.476Z,5.84
2019-01-08T06:18:44.004Z,5.76
2019-01-08T06:21:12.567Z,5.83
2019-01-08T06:24:00.195Z,5.84
2019-01-08T06:26:28.689Z,5.80
2019-01-08T06:28:57.182Z,5.74
2019-01-08T06:31:44.915Z,5.69
2019-01-08T06:37:00.857Z,5.73
2019-01-08T06:39:29.332Z,5.71
2019-01-08T06:41:57.814Z,5.72
2019-01-08T06:44:45.627Z,5.70
2019-01-08T06:47:33.231Z,5.78
2019-01-08T06:50:01.742Z,5.77
2019-01-08T06:52:49.478Z,5.73
2019-01-08T06:55:37.210Z,5.74
2019-01-08T06:58:05.690Z,5.80
2019-01-08T07:00:34.169Z,5.84
2019-01-08T07:03:22.000Z,5.83
2019-01-08T07:06:09.823Z,5.89
2019-01-08T07:08:38.297Z,5.85
2019-01-08T07:11:26.024Z,5.88
2019-01-08T07:13:54.504Z,5.89
2019-01-08T07:16:22.972Z,6.00
2019-01-08T07:19:10.561Z,5.95
2019-01-08T07:21:39.054Z,5.85
2019-01-08T07:26:54.967Z,5.97
2019-01-08T07:29:23.438Z,6.01
2019-01-08T07:32:11.037Z,5.99
2019-01-08T07:34:39.506Z,6.05
2019-01-08T07:37:07.989Z,5.98
2019-01-08T07:39:55.585Z,5.97
2019-01-08T07:42:43.176Z,6.00
2019-01-08T07:45:11.648Z,6.04
2019-01-08T07:47:40.130Z,5.99
2019-01-08T07:50:48.513Z,6.02
2019-01-08T07:56:10.723Z,5.95
2019-01-08T07:58:39.202Z,5.97
2019-01-08T08:01:26.926Z,5.92
2019-01-08T08:04:14.525Z,5.87
2019-01-08T08:07:02.244Z,5.81
2019-01-08T08:09:49.972Z,5.86
2019-01-08T08:12:37.575Z,5.81
2019-01-08T08:15:45.966Z,5.78
2019-01-08T08:18:14.446Z,5.82
2019-01-08T08:20:42.917Z,5.80
2019-01-08T08:25:45.696Z,5.70
2019-01-08T08:28:33.298Z,5.73
2019-01-08T08:31:01.775Z,5.70
2019-01-08T08:33:49.512Z,5.72
2019-01-08T08:36:37.344Z,5.72
2019-01-08T08:39:45.730Z,5.81
2019-01-08T08:42:14.206Z,5.71
2019-01-08T08:45:01.940Z,5.72
2019-01-08T08:47:30.413Z,5.78
2019-01-08T08:52:33.136Z,5.77
2019-01-08T08:55:01.613Z,5.75
2019-01-08T08:57:30.085Z,5.86
2019-01-08T09:00:17.817Z,5.87
2019-01-08T09:02:46.296Z,5.77
2019-01-08T09:05:33.906Z,5.90
2019-01-08T09:08:21.728Z,5.83
2019-01-08T09:10:50.207Z,5.92
2019-01-08T09:13:37.941Z,5.91
2019-01-08T09:16:06.417Z,5.97
2019-01-08T09:21:08.504Z,6.09
2019-01-08T09:23:56.217Z,6.19
2019-01-08T09:26:43.915Z,6.25
2019-01-08T09:29:12.396Z,6.32
2019-01-08T09:31:59.986Z,6.43
2019-01-08T09:34:47.730Z,6.48
2019-01-08T09:37:35.318Z,6.54
2019-01-08T09:42:58.350Z,6.66
2019-01-08T09:45:26.828Z,6.80
2019-01-08T09:47:55.296Z,6.69
2019-01-08T09:50:23.776Z,6.70
2019-01-08T09:52:52.253Z,6.75
2019-01-08T09:55:20.734Z,6.87
2019-01-08T09:58:08.555Z,6.93
2019-01-08T10:00:56.156Z,6.98
2019-01-08T10:03:43.873Z,6.98
2019-01-08T10:06:12.355Z,7.08
2019-01-08T10:09:00.104Z,7.06
2019-01-08T10:11:47.825Z,7.18
2019-01-08T10:14:35.555Z,7.22
2019-01-08T10:20:10.825Z,7.26
2019-01-08T10:22:39.296Z,7.29
2019-01-08T10:25:47.694Z,7.25
2019-01-08T10:31:22.862Z,7.45
2019-01-08T10:33:51.337Z,7.15
2019-01-08T10:36:38.937Z,7.09
2019-01-08T10:39:47.333Z,7.01
2019-01-08T10:42:15.810Z,6.93
2019-01-08T10:44:44.288Z,6.98
2019-01-08T10:47:12.758Z,7.08
2019-01-08T10:49:41.240Z,7.10
2019-01-08T10:52:28.961Z,7.10
2019-01-08T10:55:37.352Z,6.97
2019-01-08T10:58:24.975Z,6.94
2019-01-08T11:01:12.707Z,6.78
2019-01-08T11:03:41.185Z,6.61
2019-01-08T11:06:28.781Z,6.40
2019-01-08T11:09:16.374Z,6.25
2019-01-08T11:14:58.355Z,6.35
2019-01-08T11:17:26.838Z,6.43
2019-01-08T11:20:35.235Z,6.43
2019-01-08T11:23:03.713Z,6.50
2019-01-08T11:25:32.197Z,6.40
2019-01-08T11:28:19.789Z,6.46
2019-01-08T11:31:07.392Z,6.46
2019-01-08T11:33:54.988Z,6.63
2019-01-08T11:36:42.588Z,6.80
2019-01-08T11:39:11.055Z,6.79
2019-01-08T11:41:58.786Z,6.86
2019-01-08T11:44:27.256Z,6.85
2019-01-08T11:47:15.076Z,6.79
2019-01-08T11:49:43.555Z,6.77
2019-01-08T11:52:31.158Z,6.74
2019-01-08T11:55:18.877Z,6.71
2019-01-08T11:58:06.478Z,6.71
2019-01-08T12:00:54.083Z,6.74
2019-01-08T12:03:22.554Z,6.67
2019-01-08T12:06:10.154Z,6.46
2019-01-08T12:08:57.877Z,6.48
2019-01-08T12:11:45.609Z,6.44
2019-01-08T12:14:14.107Z,6.36
2019-01-08T12:17:01.726Z,6.39
2019-01-08T12:19:49.538Z,6.43
2019-01-08T12:22:18.026Z,6.54
2019-01-08T12:25:05.624Z,6.58
2019-01-08T12:27:53.220Z,6.48
2019-01-08T12:30:40.815Z,6.43
2019-01-08T12:33:09.299Z,6.38
2019-01-08T12:35:56.909Z,6.48
2019-01-08T12:38:25.413Z,6.46
2019-01-08T12:40:53.899Z,6.52
2019-01-08T12:43:22.397Z,6.46
2019-01-08T12:45:50.878Z,6.37
2019-01-08T12:48:19.359Z,6.33
2019-01-08T12:51:07.184Z,6.13
2019-01-08T12:53:54.791Z,5.98
2019-01-08T12:56:23.275Z,6.06
2019-01-08T13:01:26.011Z,5.96
2019-01-08T13:03:54.502Z,5.91
2019-01-08T13:06:22.995Z,6.08
2019-01-08T13:08:51.486Z,6.06
2019-01-08T13:14:07.401Z,6.09
2019-01-08T13:16:55.064Z,6.00
2019-01-08T13:19:23.559Z,6.05
2019-01-08T13:21:52.034Z,6.05
2019-01-08T13:24:20.545Z,6.22
2019-01-08T13:29:55.813Z,6.25
2019-01-08T13:32:43.599Z,6.25
2019-01-08T13:35:31.201Z,6.18
2019-01-08T13:38:19.037Z,6.23
2019-01-08T13:40:47.511Z,6.23
2019-01-08T13:43:16.324Z,6.25
2019-01-08T13:45:44.797Z,6.14
2019-01-08T13:48:13.379Z,6.10
2019-01-08T13:50:41.853Z,6.05
2019-01-08T13:53:22.596Z,6.04
2019-01-08T13:58:38.558Z,5.97
2019-01-08T14:01:26.379Z,6.00
2019-01-08T14:04:14.110Z,5.95
2019-01-08T14:09:50.674Z,5.96
2019-01-08T14:12:19.149Z,5.96
2019-01-08T14:14:47.632Z,5.89
2019-01-08T14:23:51.143Z,5.94
2019-01-08T14:26:38.631Z,5.76
2019-01-08T14:29:07.056Z,5.72
2019-01-08T14:31:54.566Z,5.66
2019-01-08T14:37:01.631Z,5.55
2019-01-08T14:39:30.078Z,5.62
2019-01-08T14:44:45.926Z,5.53
2019-01-08T14:47:14.330Z,5.59
2019-01-08T14:49:42.745Z,5.74
2019-01-08T14:52:11.118Z,5.76
2019-01-08T14:54:39.496Z,5.78
2019-01-08T14:57:27.003Z,5.73
2019-01-08T15:02:29.369Z,5.63
2019-01-08T15:04:58.057Z,5.63
2019-01-08T15:07:27.859Z,5.68
2019-01-08T15:09:56.245Z,5.64
2019-01-08T15:12:24.632Z,5.55
2019-01-08T15:15:12.884Z,5.59
2019-01-08T15:20:30.115Z,5.54
2019-01-08T15:25:45.986Z,5.49
2019-01-08T15:28:14.457Z,5.51
2019-01-08T15:30:42.923Z,5.53
2019-01-08T15:33:11.308Z,5.64
2019-01-08T15:35:39.689Z,5.76
2019-01-08T15:38:27.309Z,5.72
2019-01-08T15:40:55.769Z,5.81
2019-01-08T15:43:24.212Z,5.79
2019-01-08T15:46:32.558Z,5.75
2019-01-08T15:49:00.973Z,5.57
2019-01-08T15:51:48.536Z,5.62
2019-01-08T15:54:16.914Z,5.54
2019-01-08T15:57:04.415Z,5.59
2019-01-08T15:59:51.909Z,5.77
2019-01-08T16:02:20.278Z,5.69
2019-01-08T16:05:08.068Z,5.81
2019-01-08T16:10:23.883Z,5.63
2019-01-08T16:12:52.267Z,5.74
2019-01-08T16:15:20.661Z,5.79
2019-01-08T16:18:28.954Z,5.71
2019-01-08T16:21:16.474Z,5.62
2019-01-08T16:23:44.868Z,5.39
2019-01-08T16:26:32.520Z,5.34
2019-01-08T16:29:00.945Z,5.26
2019-01-08T16:31:48.444Z,5.21
2019-01-08T16:34:16.822Z,5.09
2019-01-08T16:36:45.301Z,5.03
2019-01-08T16:39:13.662Z,5.10
2019-01-08T16:42:01.337Z,4.97
2019-01-08T16:44:29.735Z,5.11
2019-01-08T16:47:17.390Z,5.12
2019-01-08T16:52:34.838Z,5.05
2019-01-08T17:00:45.243Z,5.09
2019-01-08T17:03:13.618Z,5.05
2019-01-08T17:05:41.984Z,5.03
2019-01-08T17:08:10.360Z,4.95
2019-01-08T17:10:38.766Z,5.04
2019-01-08T17:13:07.150Z,4.97
2019-01-08T17:15:35.528Z,4.91
2019-01-08T17:18:03.904Z,4.78
2019-01-08T17:23:19.712Z,4.82
2019-01-08T17:25:48.348Z,4.69
2019-01-08T17:28:18.184Z,4.68
2019-01-08T17:30:46.560Z,4.50
2019-01-08T17:33:14.937Z,4.60
2019-01-08T17:35:43.301Z,4.68
2019-01-08T17:38:11.698Z,4.69
2019-01-08T17:40:40.097Z,4.73
2019-01-08T17:43:08.476Z,4.76
2019-01-08T17:45:36.846Z,4.77
2019-01-08T17:48:24.345Z,4.73
2019-01-08T17:50:52.730Z,4.70
2019-01-08T17:53:21.107Z,4.69
2019-01-08T17:55:49.468Z,4.65
2019-01-08T17:58:56.601Z,4.64
2019-01-08T18:01:44.090Z,4.67
2019-01-08T18:09:20.853Z,4.57
2019-01-08T18:12:08.467Z,4.40
2019-01-08T18:15:16.766Z,4.34
2019-01-08T18:18:04.399Z,4.19
2019-01-08T18:20:51.937Z,4.11
2019-01-08T18:25:54.296Z,3.96
2019-01-08T18:28:22.680Z,3.98
2019-01-08T18:31:10.378Z,3.97
2019-01-08T18:33:38.798Z,4.02
2019-01-08T18:36:07.195Z,4.12
2019-01-08T18:38:54.955Z,4.16
2019-01-08T18:44:10.767Z,3.97
2019-01-08T18:46:39.322Z,3.94
2019-01-08T18:49:07.972Z,3.92
2019-01-08T18:51:37.903Z,4.03
2019-01-08T18:54:25.527Z,3.99
2019-01-08T18:56:53.899Z,4.14
2019-01-08T18:59:41.589Z,4.12
2019-01-08T19:02:29.269Z,4.05
2019-01-08T19:07:31.834Z,4.07
2019-01-08T19:10:40.200Z,4.06
2019-01-08T19:13:08.565Z,4.06
2019-01-08T19:15:36.940Z,3.89
2019-01-08T19:18:05.306Z,3.90
2019-01-08T19:20:33.687Z,4.01
2019-01-08T19:23:02.053Z,3.97
2019-01-08T19:25:49.771Z,4.07
2019-01-08T19:28:18.195Z,4.13
2019-01-08T19:30:46.570Z,4.12
2019-01-08T19:36:02.416Z,4.21
2019-01-08T19:39:10.705Z,4.14
2019-01-08T19:41:39.077Z,4.16
2019-01-08T19:44:07.486Z,4.20
2019-01-08T19:46:55.210Z,4.13
2019-01-08T19:49:23.589Z,4.14
2019-01-08T19:52:11.229Z,4.10
2019-01-08T19:54:39.614Z,4.08
2019-01-08T19:57:27.228Z,4.17
2019-01-08T19:59:55.612Z,4.28
2019-01-08T20:02:43.240Z,4.27
2019-01-08T20:05:11.716Z,4.30
2019-01-08T20:07:40.088Z,4.21
2019-01-08T20:10:08.532Z,4.24
2019-01-08T20:18:17.633Z,4.10
2019-01-08T20:20:46.023Z,3.95
2019-01-08T20:26:03.476Z,3.89
2019-01-08T20:28:51.089Z,3.91
2019-01-08T20:31:19.466Z,4.01
2019-01-08T20:33:47.856Z,4.00
2019-01-08T20:36:35.574Z,4.00
2019-01-08T20:42:12.025Z,3.99
2019-01-08T20:44:59.750Z,3.96
2019-01-08T20:47:28.149Z,3.96
2019-01-08T20:49:56.565Z,3.95
2019-01-08T20:52:24.971Z,4.01
2019-01-08T20:55:12.795Z,4.01
2019-01-08T20:58:00.433Z,3.96
2019-01-08T21:00:48.056Z,3.94
2019-01-08T21:03:16.428Z,3.83
2019-01-08T21:05:44.819Z,3.80
2019-01-08T21:08:32.528Z,3.84
2019-01-08T21:14:15.084Z,3.84
2019-01-08T21:16:45.840Z,3.90
2019-01-08T21:22:01.036Z,3.83
2019-01-08T21:24:29.413Z,3.79
2019-01-08T21:27:17.133Z,3.80
2019-01-08T21:32:52.242Z,3.87
2019-01-08T21:35:20.609Z,3.86
2019-01-08T21:38:08.278Z,3.88
2019-01-08T21:40:55.892Z,3.86
2019-01-08T21:43:24.258Z,3.84
2019-01-08T21:48:40.152Z,3.79
2019-01-08T21:51:08.597Z,3.83
2019-01-08T21:53:56.087Z,3.87
2019-01-08T21:56:43.592Z,3.89
2019-01-08T21:59:31.086Z,3.86
2019-01-08T22:05:13.357Z,3.93
2019-01-08T22:08:21.657Z,3.94
2019-01-08T22:11:09.189Z,3.88
2019-01-08T22:13:37.564Z,4.04
2019-01-08T22:16:25.068Z,4.09
2019-01-08T22:19:33.383Z,4.09
2019-01-08T22:22:02.035Z,4.15
2019-01-08T22:24:30.418Z,4.18
2019-01-08T22:26:58.811Z,4.13
2019-01-08T22:29:27.171Z,4.18
2019-01-08T22:32:14.718Z,4.14
2019-01-08T22:35:02.879Z,4.21
2019-01-08T22:37:32.420Z,4.25
2019-01-08T22:42:49.883Z,4.10
2019-01-08T22:45:18.256Z,4.00
2019-01-08T22:47:46.749Z,4.04
2019-01-08T22:50:34.410Z,4.07
2019-01-08T22:53:22.079Z,3.90
2019-01-08T22:56:09.724Z,3.91
2019-01-08T22:58:38.257Z,3.89
2019-01-08T23:04:54.692Z,3.90
2019-01-08T23:09:57.729Z,3.76
2019-01-08T23:12:45.518Z,3.62
2019-01-08T23:15:53.840Z,3.67
2019-01-08T23:18:41.784Z,3.58
2019-01-08T23:21:29.444Z,3.62
2019-01-08T23:23:57.833Z,3.71
2019-01-08T23:26:26.211Z,3.58
2019-01-08T23:29:13.748Z,3.52
2019-01-08T23:31:42.166Z,3.55
2019-01-08T23:34:10.684Z,3.54
2019-01-08T23:36:58.489Z,3.55
2019-01-08T23:39:46.128Z,3.63
2019-01-08T23:42:14.644Z,3.61
2019-01-08T23:44:43.023Z,3.65
2019-01-08T23:47:11.416Z,3.62
2019-01-08T23:49:58.927Z,3.66
2019-01-08T23:53:07.214Z,3.63
2019-01-08T23:56:15.534Z,3.65
2019-01-08T23:58:43.919Z,3.67
